createdAt,value
2018-11-20T00:02:16.371Z,101836.28
2018-11-20T00:05:17.183Z,101823.17
2018-11-20T00:08:08.385Z,101825.97
2018-11-20T00:10:57.285Z,101822.15
2018-11-20T00:13:54.507Z,101833.94
2018-11-20T00:16:41.739Z,101831.54
2018-11-20T00:19:42.367Z,101831.94
2018-11-20T00:22:25.983Z,101836.42
2018-11-20T00:25:20.289Z,101834.47
2018-11-20T00:28:01.457Z,101836.55
2018-11-20T00:30:44.488Z,101821.16
2018-11-20T00:33:31.381Z,101827.33
2018-11-20T00:36:19.006Z,101827.19
2018-11-20T00:38:55.882Z,101825.84
2018-11-20T00:41:40.589Z,101821.20
2018-11-20T00:44:29.177Z,101826.08
2018-11-20T00:47:11.835Z,101821.79
2018-11-20T00:49:50.051Z,101823.23
2018-11-20T00:52:47.420Z,101819.58
2018-11-20T00:56:30.000Z,101814.47
2018-11-20T00:59:21.417Z,101823.23
2018-11-20T01:02:10.153Z,101808.61
2018-11-20T01:04:57.578Z,101800.17
2018-11-20T01:07:36.810Z,101802.38
2018-11-20T01:10:31.270Z,101797.11
2018-11-20T01:13:19.443Z,101795.43
2018-11-20T01:16:05.591Z,101794.31
2018-11-20T01:18:52.910Z,101791.09
2018-11-20T01:21:40.478Z,101795.03
2018-11-20T01:24:25.862Z,101786.83
2018-11-20T01:27:07.460Z,101784.95
2018-11-20T01:30:04.400Z,101784.20
2018-11-20T01:32:55.881Z,101781.00
2018-11-20T01:35:50.152Z,101768.02
2018-11-20T01:38:31.742Z,101774.55
2018-11-20T01:41:20.274Z,101776.85
2018-11-20T01:44:07.334Z,101757.55
2018-11-20T01:46:46.360Z,101761.47
2018-11-20T01:49:34.692Z,101764.30
2018-11-20T01:52:29.004Z,101766.61
2018-11-20T01:55:29.564Z,101750.70
2018-11-20T01:58:16.728Z,101764.67
2018-11-20T02:01:14.229Z,101768.13
2018-11-20T02:04:01.174Z,101763.31
2018-11-20T02:06:41.864Z,101759.36
2018-11-20T02:09:36.506Z,101751.75
2018-11-20T02:12:27.518Z,101767.10
2018-11-20T02:15:14.381Z,101758.54
2018-11-20T02:18:12.585Z,101756.89
2018-11-20T02:20:51.316Z,101753.56
2018-11-20T02:23:34.557Z,101739.93
2018-11-20T02:26:21.920Z,101740.66
2018-11-20T02:29:15.421Z,101741.70
2018-11-20T02:32:12.922Z,101745.70
2018-11-20T02:35:06.351Z,101739.63
2018-11-20T02:38:13.025Z,101733.51
2018-11-20T02:40:57.599Z,101722.48
2018-11-20T02:43:44.577Z,101723.23
2018-11-20T02:46:42.196Z,101720.80
2018-11-20T02:49:29.389Z,101715.33
2018-11-20T02:52:12.910Z,101721.78
2018-11-20T02:55:01.248Z,101713.03
2018-11-20T02:57:48.560Z,101704.99
2018-11-20T03:00:51.755Z,101706.38
2018-11-20T03:03:49.323Z,101702.03
2018-11-20T03:06:40.645Z,101696.62
2018-11-20T03:09:23.007Z,101694.36
2018-11-20T03:12:08.109Z,101690.73
2018-11-20T03:14:46.622Z,101682.08
2018-11-20T03:17:30.666Z,101659.79
2018-11-20T03:20:13.360Z,101665.13
2018-11-20T03:23:01.271Z,101648.24
2018-11-20T03:26:04.889Z,101650.25
2018-11-20T03:28:58.882Z,101652.95
2018-11-20T03:31:52.765Z,101641.46
2018-11-20T03:34:34.544Z,101646.06
2018-11-20T03:37:18.781Z,101636.92
2018-11-20T03:40:16.244Z,101642.75
2018-11-20T03:42:55.324Z,101644.03
2018-11-20T03:45:46.825Z,101634.55
2018-11-20T03:48:38.204Z,101634.32
2018-11-20T03:51:25.360Z,101634.91
2018-11-20T03:54:16.735Z,101626.89
2018-11-20T03:57:01.963Z,101630.17
2018-11-20T04:00:05.645Z,101632.21
2018-11-20T04:02:52.764Z,101621.72
2018-11-20T04:05:39.867Z,101616.45
2018-11-20T04:08:28.246Z,101618.00
2018-11-20T04:11:16.245Z,101621.67
2018-11-20T04:14:11.966Z,101623.00
2018-11-20T04:16:54.110Z,101625.87
2018-11-20T04:19:54.702Z,101619.11
2018-11-20T04:22:41.198Z,101626.84
2018-11-20T04:25:44.448Z,101626.95
2018-11-20T04:28:32.035Z,101631.75
2018-11-20T04:31:52.056Z,101628.00
2018-11-20T04:34:49.520Z,101631.29
2018-11-20T04:37:45.412Z,101646.95
2018-11-20T04:40:31.536Z,101641.83
2018-11-20T04:43:18.612Z,101642.48
2018-11-20T04:46:06.087Z,101646.06
2018-11-20T04:48:45.257Z,101646.86
2018-11-20T04:51:21.174Z,101649.12
2018-11-20T04:54:24.669Z,101646.33
2018-11-20T04:57:15.848Z,101647.75
2018-11-20T05:00:12.531Z,101648.91
2018-11-20T05:06:29.304Z,101660.45
2018-11-20T05:09:20.780Z,101649.00
2018-11-20T05:15:14.225Z,101648.38
2018-11-20T05:18:01.120Z,101650.81
2018-11-20T05:20:55.421Z,101648.24
2018-11-20T05:23:39.476Z,101652.59
2018-11-20T05:26:19.893Z,101637.16
2018-11-20T05:29:06.960Z,101640.48
2018-11-20T05:31:59.289Z,101650.19
2018-11-20T05:34:46.312Z,101654.80
2018-11-20T05:37:33.428Z,101640.58
2018-11-20T05:40:23.617Z,101661.73
2018-11-20T05:43:14.920Z,101654.10
2018-11-20T05:46:06.099Z,101656.50
2018-11-20T05:48:53.267Z,101667.14
2018-11-20T05:51:41.870Z,101663.61
2018-11-20T05:54:23.809Z,101663.19
2018-11-20T05:57:12.532Z,101670.81
2018-11-20T06:00:09.815Z,101675.66
2018-11-20T06:03:01.610Z,101669.34
2018-11-20T06:05:55.913Z,101662.98
2018-11-20T06:08:43.040Z,101678.33
2018-11-20T06:11:30.196Z,101667.14
2018-11-20T06:14:21.488Z,101677.64
2018-11-20T06:17:12.960Z,101675.89
2018-11-20T06:20:05.120Z,101689.72
2018-11-20T06:22:49.400Z,101682.48
2018-11-20T06:25:40.904Z,101678.69
2018-11-20T06:28:38.169Z,101685.21
2018-11-20T06:31:31.806Z,101671.28
2018-11-20T06:34:20.378Z,101681.55
2018-11-20T06:37:11.286Z,101684.87
2018-11-20T06:39:58.411Z,101689.09
2018-11-20T06:42:49.837Z,101684.94
2018-11-20T06:45:41.576Z,101679.41
2018-11-20T06:48:32.324Z,101679.64
2018-11-20T06:51:19.391Z,101678.27
2018-11-20T06:54:13.501Z,101674.77
2018-11-20T06:57:17.164Z,101679.31
2018-11-20T07:00:04.367Z,101684.74
2018-11-20T07:02:52.666Z,101689.52
2018-11-20T07:05:45.859Z,101689.69
2018-11-20T07:08:52.859Z,101695.08
2018-11-20T07:11:39.796Z,101694.92
2018-11-20T07:14:38.689Z,101695.74
2018-11-20T07:17:25.682Z,101679.41
2018-11-20T07:20:15.198Z,101683.10
2018-11-20T07:23:12.904Z,101682.64
2018-11-20T07:25:58.176Z,101678.09
2018-11-20T07:28:45.400Z,101675.80
2018-11-20T07:31:32.858Z,101665.65
2018-11-20T07:34:19.980Z,101666.44
2018-11-20T07:37:19.703Z,101660.38
2018-11-20T07:40:11.434Z,101653.47
2018-11-20T07:42:58.634Z,101656.60
2018-11-20T07:46:02.319Z,101660.25
2018-11-20T07:49:03.710Z,101655.88
2018-11-20T07:51:47.215Z,101653.84
2018-11-20T07:54:44.687Z,101653.24
2018-11-20T07:57:26.388Z,101649.82
2018-11-20T08:00:13.906Z,101651.56
2018-11-20T08:03:01.310Z,101639.22
2018-11-20T08:06:00.080Z,101641.47
2018-11-20T08:08:46.970Z,101640.17
2018-11-20T08:11:41.702Z,101638.73
2018-11-20T08:14:42.402Z,101637.34
2018-11-20T08:17:30.851Z,101641.27
2018-11-20T08:20:32.979Z,101627.38
2018-11-20T08:23:35.248Z,101631.56
2018-11-20T08:26:14.580Z,101638.17
2018-11-20T08:29:01.830Z,101637.58
2018-11-20T08:31:56.957Z,101637.31
2018-11-20T08:38:17.409Z,101618.23
2018-11-20T08:41:10.129Z,101626.05
2018-11-20T08:44:00.826Z,101620.35
2018-11-20T08:46:45.655Z,101622.66
2018-11-20T08:49:36.369Z,101629.43
2018-11-20T08:52:27.131Z,101624.91
2018-11-20T08:55:33.321Z,101617.48
2018-11-20T08:58:19.509Z,101619.73
2018-11-20T09:01:07.752Z,101612.78
2018-11-20T09:03:55.793Z,101618.80
2018-11-20T09:06:38.960Z,101611.95
2018-11-20T09:09:23.348Z,101612.91
2018-11-20T09:12:04.238Z,101608.54
2018-11-20T09:15:10.683Z,101607.47
2018-11-20T09:18:14.705Z,101608.41
2018-11-20T09:21:05.269Z,101598.83
2018-11-20T09:23:56.969Z,101598.48
2018-11-20T09:26:57.858Z,101607.81
2018-11-20T09:30:04.375Z,101600.43
2018-11-20T09:33:02.152Z,101598.65
2018-11-20T09:35:56.072Z,101592.06
2018-11-20T09:38:46.723Z,101595.73
2018-11-20T09:41:37.314Z,101582.91
2018-11-20T09:44:59.927Z,101583.64
2018-11-20T09:47:48.720Z,101571.12
2018-11-20T09:50:33.908Z,101563.73
2018-11-20T09:53:25.313Z,101555.20
2018-11-20T09:56:21.831Z,101550.50
2018-11-20T09:59:12.720Z,101547.87
2018-11-20T10:02:03.785Z,101540.13
2018-11-20T10:04:54.715Z,101537.81
2018-11-20T10:07:52.810Z,101543.67
2018-11-20T10:10:41.821Z,101547.87
2018-11-20T10:13:28.887Z,101534.66
2018-11-20T10:16:15.393Z,101549.06
2018-11-20T10:19:09.319Z,101544.31
2018-11-20T10:21:55.660Z,101539.16
2018-11-20T10:24:59.073Z,101546.59
2018-11-20T10:27:45.341Z,101539.05
2018-11-20T10:30:44.969Z,101522.66
2018-11-20T10:33:41.569Z,101522.53
2018-11-20T10:36:27.892Z,101524.17
2018-11-20T10:39:14.012Z,101522.88
2018-11-20T10:42:04.715Z,101523.27
2018-11-20T10:44:55.003Z,101528.73
2018-11-20T10:47:46.525Z,101518.92
2018-11-20T10:50:33.061Z,101521.98
2018-11-20T10:53:19.985Z,101521.20
2018-11-20T10:56:06.753Z,101511.59
2018-11-20T10:59:00.749Z,101515.72
2018-11-20T11:01:47.377Z,101507.02
2018-11-20T11:04:33.372Z,101510.42
2018-11-20T11:07:30.293Z,101502.22
2018-11-20T11:10:20.391Z,101510.40
2018-11-20T11:13:06.871Z,101509.48
2018-11-20T11:15:57.721Z,101504.19
2018-11-20T11:18:44.113Z,101507.63
2018-11-20T11:21:46.832Z,101503.62
2018-11-20T11:24:43.403Z,101507.36
2018-11-20T11:27:29.883Z,101514.94
2018-11-20T11:30:16.827Z,101503.23
2018-11-20T11:33:02.912Z,101495.95
2018-11-20T11:35:49.113Z,101505.61
2018-11-20T11:38:38.407Z,101496.05
2018-11-20T11:41:27.549Z,101497.73
2018-11-20T11:44:16.348Z,101494.63
2018-11-20T11:46:59.845Z,101496.92
2018-11-20T11:49:46.641Z,101495.66
2018-11-20T11:52:32.769Z,101485.98
2018-11-20T11:55:15.690Z,101493.94
2018-11-20T11:57:57.566Z,101496.72
2018-11-20T12:00:44.225Z,101494.92
2018-11-20T12:03:41.015Z,101498.17
2018-11-20T12:06:47.085Z,101498.77
2018-11-20T12:09:43.567Z,101496.81
2018-11-20T12:12:24.567Z,101488.64
2018-11-20T12:15:12.351Z,101484.12
2018-11-20T12:18:09.050Z,101480.94
2018-11-20T12:20:48.947Z,101479.16
2018-11-20T12:23:32.739Z,101468.55
2018-11-20T12:26:29.528Z,101466.12
2018-11-20T12:29:17.095Z,101463.50
2018-11-20T12:32:08.502Z,101461.33
2018-11-20T12:34:54.416Z,101466.25
2018-11-20T12:37:40.701Z,101450.55
2018-11-20T12:40:22.370Z,101458.78
2018-11-20T12:43:08.897Z,101444.95
2018-11-20T12:45:55.984Z,101445.27
2018-11-20T12:48:42.594Z,101452.38
2018-11-20T12:51:34.367Z,101434.34
2018-11-20T12:54:40.157Z,101435.22
2018-11-20T12:57:37.118Z,101434.45
2018-11-20T13:00:25.078Z,101448.26
2018-11-20T13:03:24.534Z,101445.27
2018-11-20T13:06:10.983Z,101442.50
2018-11-20T13:09:09.650Z,101439.07
2018-11-20T13:12:00.328Z,101432.70
2018-11-20T13:14:50.710Z,101431.34
2018-11-20T13:17:40.909Z,101429.87
2018-11-20T13:20:29.640Z,101432.66
2018-11-20T13:23:18.061Z,101416.92
2018-11-20T13:26:24.541Z,101421.97
2018-11-20T13:29:11.780Z,101404.86
2018-11-20T13:32:02.553Z,101412.02
2018-11-20T13:34:50.438Z,101413.72
2018-11-20T13:37:51.812Z,101403.10
2018-11-20T13:41:27.519Z,101408.23
2018-11-20T13:44:22.735Z,101411.30
2018-11-20T13:47:09.613Z,101402.70
2018-11-20T13:49:47.894Z,101395.95
2018-11-20T13:52:34.267Z,101395.14
2018-11-20T13:55:31.952Z,101399.77
2018-11-20T13:58:23.651Z,101400.40
2018-11-20T14:01:16.495Z,101398.25
2018-11-20T14:04:10.401Z,101386.86
2018-11-20T14:06:51.373Z,101384.98
2018-11-20T14:09:34.580Z,101384.38
2018-11-20T14:12:21.047Z,101372.84
2018-11-20T14:15:14.030Z,101361.86
2018-11-20T14:18:00.714Z,101374.09
2018-11-20T14:20:51.470Z,101358.23
2018-11-20T14:23:39.528Z,101356.26
2018-11-20T14:26:26.360Z,101341.24
2018-11-20T14:29:22.655Z,101340.72
2018-11-20T14:32:04.374Z,101334.25
2018-11-20T14:34:58.388Z,101324.45
2018-11-20T14:37:46.763Z,101327.30
2018-11-20T14:40:33.226Z,101323.45
2018-11-20T14:43:15.834Z,101320.94
2018-11-20T14:46:02.836Z,101324.67
2018-11-20T14:48:48.934Z,101322.45
2018-11-20T14:51:34.548Z,101315.70
2018-11-20T14:54:28.433Z,101324.78
2018-11-20T14:57:28.519Z,101323.23
2018-11-20T15:00:14.996Z,101316.88
2018-11-20T15:03:01.728Z,101326.13
2018-11-20T15:05:48.692Z,101325.19
2018-11-20T15:08:34.830Z,101327.63
2018-11-20T15:11:30.040Z,101328.14
2018-11-20T15:14:22.182Z,101334.99
2018-11-20T15:17:11.432Z,101341.24
2018-11-20T15:20:11.129Z,101344.86
2018-11-20T15:22:57.596Z,101347.55
2018-11-20T15:25:43.728Z,101342.40
2018-11-20T15:28:26.563Z,101337.23
2018-11-20T15:31:08.031Z,101331.39
2018-11-20T15:34:04.034Z,101347.66
2018-11-20T15:37:03.783Z,101344.30
2018-11-20T15:39:54.702Z,101342.20
2018-11-20T15:42:44.168Z,101344.34
2018-11-20T15:45:30.436Z,101336.33
2018-11-20T15:48:15.231Z,101343.02
2018-11-20T15:51:03.572Z,101344.30
2018-11-20T15:53:56.280Z,101346.64
2018-11-20T15:56:58.974Z,101346.84
2018-11-20T15:59:46.740Z,101351.11
2018-11-20T16:02:52.548Z,101355.09
2018-11-20T16:05:47.493Z,101354.51
2018-11-20T16:08:41.466Z,101366.42
2018-11-20T16:11:21.138Z,101365.48
2018-11-20T16:14:07.500Z,101369.20
2018-11-20T16:16:45.829Z,101385.13
2018-11-20T16:19:32.478Z,101373.64
2018-11-20T16:22:26.968Z,101378.58
2018-11-20T16:25:13.655Z,101384.96
2018-11-20T16:28:09.406Z,101388.84
2018-11-20T16:31:02.947Z,101389.39
2018-11-20T16:33:50.905Z,101395.00
2018-11-20T16:36:38.704Z,101399.64
2018-11-20T16:39:30.918Z,101404.63
2018-11-20T16:42:23.932Z,101401.86
2018-11-20T16:45:06.652Z,101410.38
2018-11-20T16:47:58.122Z,101404.50
2018-11-20T16:50:44.866Z,101411.66
2018-11-20T16:53:50.512Z,101415.87
2018-11-20T16:56:31.309Z,101415.64
2018-11-20T16:59:11.466Z,101408.95
2018-11-20T17:01:57.886Z,101413.20
2018-11-20T17:04:34.231Z,101417.09
2018-11-20T17:07:31.047Z,101412.81
2018-11-20T17:10:28.308Z,101415.38
2018-11-20T17:13:14.551Z,101422.50
2018-11-20T17:16:01.590Z,101422.98
2018-11-20T17:19:07.249Z,101422.15
2018-11-20T17:22:01.556Z,101411.52
2018-11-20T17:25:01.638Z,101414.44
2018-11-20T17:28:04.174Z,101421.88
2018-11-20T17:30:50.659Z,101413.34
2018-11-20T17:33:44.664Z,101412.49
2018-11-20T17:36:35.085Z,101404.09
2018-11-20T17:39:28.504Z,101393.83
2018-11-20T17:42:22.256Z,101396.00
2018-11-20T17:45:00.492Z,101399.05
2018-11-20T17:47:51.233Z,101394.53
2018-11-20T17:50:51.120Z,101403.00
2018-11-20T17:53:36.459Z,101406.72
2018-11-20T17:56:24.541Z,101407.02
2018-11-20T17:59:18.545Z,101407.23
2018-11-20T18:02:11.993Z,101391.84
2018-11-20T18:04:58.889Z,101411.34
2018-11-20T18:07:56.202Z,101410.15
2018-11-20T18:10:45.208Z,101408.12
2018-11-20T18:13:39.078Z,101413.19
2018-11-20T18:16:27.409Z,101415.50
2018-11-20T18:19:25.712Z,101412.02
2018-11-20T18:22:07.195Z,101413.34
2018-11-20T18:24:47.693Z,101408.16
2018-11-20T18:27:36.143Z,101408.16
2018-11-20T18:30:32.814Z,101413.96
2018-11-20T18:33:26.648Z,101403.78
2018-11-20T18:36:13.875Z,101415.38
2018-11-20T18:39:01.811Z,101421.22
2018-11-20T18:41:51.003Z,101405.61
2018-11-20T18:44:37.753Z,101419.71
2018-11-20T18:47:25.836Z,101421.70
2018-11-20T18:50:13.040Z,101424.14
2018-11-20T18:52:52.626Z,101424.05
2018-11-20T18:55:40.693Z,101414.73
2018-11-20T18:58:32.058Z,101420.28
2018-11-20T19:01:18.435Z,101421.20
2018-11-20T19:04:15.391Z,101422.58
2018-11-20T19:07:01.606Z,101410.50
2018-11-20T19:09:48.366Z,101416.78
2018-11-20T19:12:36.141Z,101419.48
2018-11-20T19:15:39.713Z,101420.33
2018-11-20T19:18:23.748Z,101415.95
2018-11-20T19:21:06.725Z,101419.61
2018-11-20T19:23:53.764Z,101412.81
2018-11-20T19:26:53.542Z,101413.14
2018-11-20T19:29:33.159Z,101416.14
2018-11-20T19:32:33.085Z,101407.41
2018-11-20T19:35:38.994Z,101409.16
2018-11-20T19:38:26.833Z,101415.59
2018-11-20T19:41:12.956Z,101407.14
2018-11-20T19:44:00.075Z,101421.11
2018-11-20T19:46:46.840Z,101420.05
2018-11-20T19:49:28.941Z,101421.55
2018-11-20T19:52:15.672Z,101423.77
2018-11-20T19:55:06.681Z,101420.19
2018-11-20T19:57:56.297Z,101424.00
2018-11-20T20:00:46.900Z,101422.67
2018-11-20T20:03:34.161Z,101428.42
2018-11-20T20:06:22.122Z,101441.73
2018-11-20T20:09:08.957Z,101427.36
2018-11-20T20:12:09.216Z,101421.91
2018-11-20T20:15:08.900Z,101425.97
2018-11-20T20:17:56.839Z,101429.16
2018-11-20T20:20:41.429Z,101436.82
2018-11-20T20:23:38.193Z,101443.06
2018-11-20T20:26:25.816Z,101439.30
2018-11-20T20:29:32.388Z,101439.95
2018-11-20T20:32:20.226Z,101446.38
2018-11-20T20:35:15.533Z,101453.99
2018-11-20T20:38:09.130Z,101452.48
2018-11-20T20:40:55.670Z,101454.78
2018-11-20T20:43:55.266Z,101453.80
2018-11-20T20:46:41.716Z,101448.10
2018-11-20T20:49:27.926Z,101458.36
2018-11-20T20:52:06.318Z,101468.11
2018-11-20T20:54:53.402Z,101473.86
2018-11-20T20:57:44.058Z,101472.75
2018-11-20T21:00:32.789Z,101470.71
2018-11-20T21:03:24.889Z,101473.59
2018-11-20T21:06:15.775Z,101484.65
2018-11-20T21:09:02.477Z,101486.11
2018-11-20T21:11:50.045Z,101482.74
2018-11-20T21:14:41.275Z,101479.47
2018-11-20T21:17:23.762Z,101486.34
2018-11-20T21:20:10.949Z,101491.24
2018-11-20T21:23:01.381Z,101487.70
2018-11-20T21:25:50.415Z,101493.19
2018-11-20T21:28:37.291Z,101498.45
2018-11-20T21:31:20.710Z,101498.09
2018-11-20T21:34:17.017Z,101499.20
2018-11-20T21:37:03.294Z,101487.27
2018-11-20T21:39:54.488Z,101490.76
2018-11-20T21:42:50.962Z,101497.92
2018-11-20T21:45:36.319Z,101500.09
2018-11-20T21:48:23.203Z,101504.08
2018-11-20T21:51:14.837Z,101503.41
2018-11-20T21:54:14.772Z,101509.20
2018-11-20T21:57:01.261Z,101506.11
2018-11-20T22:00:06.879Z,101507.44
2018-11-20T22:03:02.079Z,101514.02
2018-11-20T22:05:52.424Z,101509.20
2018-11-20T22:08:42.727Z,101520.43
2018-11-20T22:11:29.026Z,101517.73
2018-11-20T22:14:31.676Z,101515.89
2018-11-20T22:17:21.334Z,101508.63
2018-11-20T22:20:21.141Z,101504.77
2018-11-20T22:23:14.973Z,101514.67
2018-11-20T22:26:12.004Z,101506.68
2018-11-20T22:29:02.610Z,101515.34
2018-11-20T22:31:49.985Z,101516.36
2018-11-20T22:34:45.044Z,101513.00
2018-11-20T22:37:29.898Z,101511.28
2018-11-20T22:40:33.079Z,101510.35
2018-11-20T22:43:31.573Z,101504.68
2018-11-20T22:46:32.491Z,101513.62
2018-11-20T22:49:21.132Z,101512.79
2018-11-20T22:52:09.800Z,101514.91
2018-11-20T22:55:01.409Z,101520.27
2018-11-20T22:57:49.501Z,101514.15
2018-11-20T23:00:35.983Z,101524.81
2018-11-20T23:03:22.491Z,101530.03
2018-11-20T23:06:05.515Z,101532.17
2018-11-20T23:08:34.440Z,101525.44
2018-11-20T23:11:03.475Z,101530.00
2018-11-20T23:13:33.035Z,101531.87
2018-11-20T23:16:01.679Z,101541.02
2018-11-20T23:18:30.469Z,101534.97
2018-11-20T23:20:59.430Z,101534.25
2018-11-20T23:23:29.157Z,101528.27
2018-11-20T23:25:58.021Z,101535.23
2018-11-20T23:28:30.417Z,101524.84
2018-11-20T23:30:59.311Z,101524.02
2018-11-20T23:33:28.431Z,101521.42
2018-11-20T23:35:57.467Z,101532.73
2018-11-20T23:38:26.202Z,101532.87
2018-11-20T23:40:55.285Z,101531.45
2018-11-20T23:43:24.550Z,101530.41
2018-11-20T23:45:53.604Z,101539.64
2018-11-20T23:48:22.176Z,101527.08
2018-11-20T23:50:51.020Z,101530.40
2018-11-20T23:53:23.491Z,101530.95
2018-11-20T23:55:52.386Z,101529.84
2018-11-20T23:58:21.228Z,101540.30
